Time;durP1;ratioP1;P1;durP2;ratioP2;P2;SDS_P1;SDS_P2;PMS_P1;PMS_P2;Temp;Humidity;BMP_temperature;BMP_pressure;BME280_temperature;BME280_humidity;BME280_pressure;Samples;Min_cycle;Max_cycle;Signal;HPM_P1;HPM_P2
2022/07/20 00:00:37;;;;;;;3.65;2.53;;;24.40;53.60;;;;;;4447926;28;10000802;-70
2022/07/20 00:03:08;;;;;;;7.03;3.15;;;24.30;54.10;;;;;;5050022;28;20234;-71
2022/07/20 00:05:34;;;;;;;4.93;2.90;;;24.30;54.00;;;;;;5064735;28;20028;-71
2022/07/20 00:08:00;;;;;;;9.20;3.58;;;24.20;54.00;;;;;;5055664;28;20066;-70
2022/07/20 00:13:12;;;;;;;7.43;2.83;;;24.10;54.00;;;;;;5057262;28;20075;-70
2022/07/20 00:15:37;;;;;;;7.30;3.20;;;24.00;54.40;;;;;;5065941;28;20485;-71
2022/07/20 00:18:03;;;;;;;8.82;3.08;;;24.00;55.00;;;;;;5052280;28;20064;-71
2022/07/20 00:20:29;;;;;;;3.95;3.13;;;23.90;54.90;;;;;;5071747;28;20028;-71
2022/07/20 00:22:56;;;;;;;4.07;2.78;;;23.90;55.10;;;;;;5048634;28;20025;-70
2022/07/20 00:25:23;;;;;;;3.22;2.83;;;23.80;55.00;;;;;;5068052;28;20293;-71
2022/07/20 00:27:48;;;;;;;3.47;2.80;;;23.80;55.40;;;;;;5054532;28;20056;-70
2022/07/20 00:30:14;;;;;;;6.95;2.88;;;23.70;55.80;;;;;;5082673;28;20043;-71
2022/07/20 00:32:40;;;;;;;6.43;3.20;;;23.60;55.80;;;;;;5059139;28;20613;-71
2022/07/20 00:35:08;;;;;;;4.53;2.80;;;23.60;56.90;;;;;;5067925;28;20027;-71
2022/07/20 00:37:34;;;;;;;3.47;2.72;;;23.50;56.50;;;;;;5065956;28;20052;-70
2022/07/20 00:40:00;;;;;;;6.60;2.50;;;23.40;56.50;;;;;;5050669;28;20036;-70
2022/07/20 00:42:25;;;;;;;2.70;2.50;;;23.40;56.60;;;;;;5058726;28;20051;-70
2022/07/20 00:44:51;;;;;;;2.78;2.10;;;23.30;56.70;;;;;;5055963;28;20020;-70
2022/07/20 00:47:17;;;;;;;2.80;2.33;;;23.20;57.00;;;;;;5062320;28;20119;-70
2022/07/20 00:49:43;;;;;;;2.88;2.40;;;23.10;57.20;;;;;;5068008;28;20029;-70
2022/07/20 00:52:09;;;;;;;3.72;2.47;;;23.00;57.80;;;;;;5061331;28;20028;-70
2022/07/20 00:54:35;;;;;;;5.00;2.65;;;22.90;58.20;;;;;;5067260;28;20460;-70
2022/07/20 00:57:01;;;;;;;3.08;2.58;;;22.80;58.80;;;;;;5056425;28;20118;-70
2022/07/20 00:59:27;;;;;;;4.88;2.70;;;22.80;58.60;;;;;;5056627;28;20477;-70
2022/07/20 01:01:53;;;;;;;2.60;2.40;;;22.60;58.50;;;;;;5048937;28;20058;-70
2022/07/20 01:04:18;;;;;;;4.22;2.85;;;22.60;58.70;;;;;;5055667;28;20028;-70
2022/07/20 01:06:44;;;;;;;3.00;2.53;;;22.50;59.30;;;;;;5064333;28;20540;-70
2022/07/20 01:09:10;;;;;;;6.60;2.30;;;22.40;59.50;;;;;;5060519;28;20025;-70
2022/07/20 01:11:36;;;;;;;3.53;2.45;;;22.30;59.50;;;;;;5071730;28;20029;-70
2022/07/20 01:14:03;;;;;;;4.47;2.50;;;22.20;59.60;;;;;;5056273;28;20036;-70
2022/07/20 01:16:29;;;;;;;3.95;2.55;;;22.20;59.80;;;;;;5060947;28;20100;-70
2022/07/20 01:18:55;;;;;;;3.53;2.38;;;22.10;60.00;;;;;;5057157;28;20057;-71
2022/07/20 01:21:20;;;;;;;2.63;2.35;;;22.10;59.90;;;;;;5050055;28;20067;-70
2022/07/20 01:23:46;;;;;;;4.05;2.42;;;22.00;59.70;;;;;;5053821;28;20115;-71
2022/07/20 01:26:12;;;;;;;3.75;2.58;;;22.00;59.70;;;;;;5059251;28;20020;-70
2022/07/20 01:28:37;;;;;;;4.93;2.60;;;22.00;59.80;;;;;;5065456;28;20031;-71
2022/07/20 01:31:03;;;;;;;5.38;2.80;;;21.90;59.90;;;;;;5060181;28;20222;-70
2022/07/20 01:33:28;;;;;;;3.38;2.40;;;21.90;60.00;;;;;;5050116;28;20372;-70
2022/07/20 01:35:54;;;;;;;4.38;2.60;;;21.90;60.50;;;;;;5054632;28;20128;-70
2022/07/20 01:38:20;;;;;;;3.75;2.42;;;21.80;60.70;;;;;;5063246;28;20540;-71
2022/07/20 01:40:45;;;;;;;4.68;2.63;;;21.80;60.90;;;;;;5069815;28;20028;-71
2022/07/20 01:43:11;;;;;;;4.07;2.80;;;21.70;61.30;;;;;;5056264;28;20098;-70
2022/07/20 01:45:36;;;;;;;6.13;2.90;;;21.70;61.40;;;;;;5059214;28;20016;-70
2022/07/20 01:48:03;;;;;;;3.25;2.65;;;21.60;61.60;;;;;;5065632;28;20043;-70
2022/07/20 01:50:28;;;;;;;4.32;2.80;;;21.70;61.00;;;;;;5054578;28;20016;-71
2022/07/20 01:52:54;;;;;;;6.25;3.00;;;21.70;60.80;;;;;;5055650;28;20136;-70
2022/07/20 01:55:19;;;;;;;6.28;3.25;;;21.70;61.20;;;;;;5055244;28;20028;-70
2022/07/20 01:57:45;;;;;;;3.20;2.80;;;21.70;61.10;;;;;;5056373;28;20245;-70
2022/07/20 02:00:12;;;;;;;5.13;2.72;;;21.50;61.70;;;;;;5054784;28;20032;-70
2022/07/20 02:02:39;;;;;;;7.43;3.47;;;21.50;62.40;;;;;;5048916;28;20397;-70
2022/07/20 02:05:04;;;;;;;6.78;3.35;;;21.40;62.60;;;;;;5055159;28;20025;-70
2022/07/20 02:07:30;;;;;;;6.70;3.45;;;21.40;62.80;;;;;;5059924;28;20055;-70
2022/07/20 02:09:56;;;;;;;5.78;3.40;;;21.40;63.60;;;;;;5058153;28;20021;-70
2022/07/20 02:12:21;;;;;;;6.78;3.20;;;21.30;64.00;;;;;;5057194;28;20039;-70
2022/07/20 02:14:47;;;;;;;6.63;3.38;;;21.20;64.00;;;;;;5060271;28;20052;-70
2022/07/20 02:17:13;;;;;;;4.22;3.10;;;21.10;64.00;;;;;;5071888;28;20377;-70
2022/07/20 02:19:38;;;;;;;6.35;3.38;;;21.10;64.40;;;;;;5054836;28;20028;-70
2022/07/20 02:22:04;;;;;;;4.25;3.30;;;21.00;64.70;;;;;;5065210;28;20029;-70
2022/07/20 02:24:29;;;;;;;5.05;3.70;;;20.90;64.80;;;;;;5052854;28;20053;-70
2022/07/20 02:26:55;;;;;;;5.53;3.58;;;20.90;65.30;;;;;;5058013;28;20067;-70
2022/07/20 02:29:20;;;;;;;4.10;3.50;;;20.80;65.80;;;;;;5050845;28;20431;-70
2022/07/20 02:31:46;;;;;;;5.50;3.10;;;20.70;65.90;;;;;;5059544;28;20039;-70
2022/07/20 02:34:13;;;;;;;5.85;3.33;;;20.70;65.90;;;;;;5049021;28;20066;-70
2022/07/20 02:36:39;;;;;;;8.73;3.80;;;20.70;65.80;;;;;;5065136;28;20508;-70
2022/07/20 02:39:05;;;;;;;7.25;3.75;;;20.60;65.70;;;;;;5050492;28;20056;-70
2022/07/20 02:41:32;;;;;;;4.05;3.13;;;20.60;66.30;;;;;;5050951;28;20071;-70
2022/07/20 02:43:58;;;;;;;6.55;3.80;;;20.60;66.50;;;;;;5063458;28;20033;-70
2022/07/20 02:46:24;;;;;;;7.00;3.10;;;20.50;66.30;;;;;;5048285;28;20082;-70
2022/07/20 02:48:50;;;;;;;4.88;3.35;;;20.50;66.30;;;;;;5053934;28;20036;-70
2022/07/20 02:51:15;;;;;;;8.13;3.70;;;20.50;66.20;;;;;;5051082;28;20021;-70
2022/07/20 02:53:41;;;;;;;4.25;3.33;;;20.50;66.20;;;;;;5063956;28;20028;-70
2022/07/20 02:56:06;;;;;;;5.53;3.42;;;20.50;66.60;;;;;;5058922;28;20461;-70
2022/07/20 02:58:32;;;;;;;5.53;3.38;;;20.50;66.80;;;;;;5053208;28;20020;-70
2022/07/20 03:00:58;;;;;;;4.60;3.60;;;20.40;66.80;;;;;;5051407;28;20400;-70
2022/07/20 03:03:23;;;;;;;3.60;3.05;;;20.40;66.70;;;;;;5059176;28;20125;-70
2022/07/20 03:05:49;;;;;;;4.57;3.20;;;20.40;66.80;;;;;;5053405;28;20083;-70
2022/07/20 03:08:14;;;;;;;4.35;3.15;;;20.40;66.90;;;;;;5067817;28;20662;-70
2022/07/20 03:10:40;;;;;;;4.43;3.28;;;20.40;66.60;;;;;;5073820;28;20057;-70
2022/07/20 03:13:06;;;;;;;4.72;3.63;;;20.40;66.60;;;;;;5055786;28;20575;-71
2022/07/20 03:15:32;;;;;;;7.40;3.50;;;20.50;66.70;;;;;;5053546;28;20050;-71
2022/07/20 03:17:57;;;;;;;8.00;3.42;;;20.50;66.40;;;;;;5052240;28;20040;-70
2022/07/20 03:20:26;;;;;;;6.53;3.55;;;20.50;66.20;;;;;;5071393;28;20032;-70
2022/07/20 03:22:52;;;;;;;6.40;3.40;;;20.50;66.40;;;;;;5083384;28;20021;-70
2022/07/20 03:25:19;;;;;;;4.85;3.60;;;20.50;66.20;;;;;;5069528;28;20119;-69
2022/07/20 03:27:44;;;;;;;4.50;3.47;;;20.50;66.00;;;;;;5067688;28;20024;-70
2022/07/20 03:30:11;;;;;;;3.42;3.13;;;20.50;66.00;;;;;;5067870;28;20769;-70
2022/07/20 03:32:36;;;;;;;5.68;3.50;;;20.50;66.10;;;;;;5049854;28;20076;-69
2022/07/20 03:35:03;;;;;;;4.75;3.40;;;20.50;66.80;;;;;;5060298;28;20048;-70
2022/07/20 03:37:28;;;;;;;4.85;3.70;;;20.40;67.00;;;;;;5072235;28;20036;-70
2022/07/20 03:39:54;;;;;;;8.82;3.33;;;20.40;67.20;;;;;;5078440;28;20028;-70
2022/07/20 03:42:20;;;;;;;7.65;3.63;;;20.40;67.20;;;;;;5071275;28;20040;-70
2022/07/20 03:44:46;;;;;;;7.50;3.63;;;20.40;67.50;;;;;;5054563;28;20020;-70
2022/07/20 03:47:11;;;;;;;5.10;3.00;;;20.30;67.40;;;;;;5075250;28;20071;-70
2022/07/20 03:49:37;;;;;;;6.50;3.63;;;20.30;67.40;;;;;;5069290;28;20171;-70
2022/07/20 03:52:03;;;;;;;5.60;3.50;;;20.30;67.50;;;;;;5059740;28;20125;-70
2022/07/20 03:54:28;;;;;;;6.68;3.67;;;20.30;67.60;;;;;;5070879;28;20137;-70
2022/07/20 03:56:54;;;;;;;6.70;3.55;;;20.40;67.50;;;;;;5063997;28;20024;-70
2022/07/20 03:59:19;;;;;;;4.75;3.00;;;20.40;68.00;;;;;;5059688;28;20515;-70
2022/07/20 04:01:45;;;;;;;4.50;3.20;;;20.40;68.40;;;;;;5057762;28;20027;-70
2022/07/20 04:04:10;;;;;;;5.25;3.10;;;20.30;68.40;;;;;;5078057;28;20063;-70
2022/07/20 04:06:36;;;;;;;4.13;3.38;;;20.40;68.10;;;;;;5064244;28;20055;-70
2022/07/20 04:09:03;;;;;;;3.20;2.85;;;20.40;68.40;;;;;;5067530;28;20028;-70
2022/07/20 04:11:29;;;;;;;4.68;3.10;;;20.40;68.90;;;;;;5049158;28;20040;-71
2022/07/20 04:13:54;;;;;;;6.50;3.17;;;20.40;69.30;;;;;;5074423;28;20127;-70
2022/07/20 04:16:20;;;;;;;5.03;3.00;;;20.40;69.40;;;;;;5075014;28;20392;-70
2022/07/20 04:18:46;;;;;;;4.30;3.50;;;20.50;69.50;;;;;;5068038;28;20037;-70
2022/07/20 04:21:11;;;;;;;5.95;3.55;;;21.00;68.80;;;;;;5085116;28;20387;-70
2022/07/20 04:23:37;;;;;;;4.90;3.20;;;21.20;67.70;;;;;;5060229;28;20032;-70
2022/07/20 04:26:03;;;;;;;8.07;3.60;;;21.80;66.50;;;;;;5059541;28;20037;-70
2022/07/20 04:28:29;;;;;;;5.13;3.63;;;23.30;63.20;;;;;;5062878;28;20024;-70
2022/07/20 04:30:55;;;;;;;6.65;3.60;;;25.30;58.70;;;;;;5051714;28;20027;-70
2022/07/20 04:33:20;;;;;;;7.05;3.70;;;26.90;56.10;;;;;;5054499;28;20476;-70
2022/07/20 04:35:47;;;;;;;8.45;3.30;;;;;;;;;;5056601;28;20110;-70
2022/07/20 04:38:13;;;;;;;5.25;3.55;;;28.60;51.20;;;;;;5045549;28;20056;-71
2022/07/20 04:40:39;;;;;;;5.70;3.60;;;28.90;51.20;;;;;;5052085;28;20031;-71
2022/07/20 04:43:05;;;;;;;5.57;3.53;;;28.30;51.90;;;;;;5059932;28;20077;-71
2022/07/20 04:45:31;;;;;;;6.38;3.55;;;27.40;53.10;;;;;;5060765;28;20099;-71
2022/07/20 04:47:57;;;;;;;7.43;3.50;;;26.50;54.00;;;;;;5071312;28;20774;-71
2022/07/20 04:50:23;;;;;;;6.30;3.50;;;25.70;55.00;;;;;;5060297;28;20035;-71
2022/07/20 04:52:48;;;;;;;4.45;3.30;;;25.00;56.50;;;;;;5054177;28;20025;-71
2022/07/20 04:55:14;;;;;;;9.95;3.80;;;24.50;58.00;;;;;;5053538;28;20025;-71
2022/07/20 04:57:39;;;;;;;7.20;3.67;;;24.10;58.90;;;;;;5053667;28;20056;-71
2022/07/20 05:00:06;;;;;;;18.08;3.83;;;23.80;59.20;;;;;;5046764;28;20024;-73
2022/07/20 05:02:32;;;;;;;8.43;3.35;;;23.60;59.30;;;;;;5059756;28;20053;-71
2022/07/20 05:04:57;;;;;;;9.52;3.50;;;23.60;59.70;;;;;;5062822;28;20051;-71
2022/07/20 05:07:23;;;;;;;8.65;3.60;;;23.50;60.00;;;;;;5061049;28;20091;-71
2022/07/20 05:09:49;;;;;;;8.48;3.33;;;23.40;60.30;;;;;;5054851;28;20099;-71
2022/07/20 05:12:15;;;;;;;5.45;3.20;;;23.40;60.60;;;;;;5061779;28;20416;-71
2022/07/20 05:14:41;;;;;;;10.82;3.55;;;23.30;60.60;;;;;;5061918;28;20032;-72
2022/07/20 05:17:06;;;;;;;6.07;3.50;;;23.40;60.40;;;;;;5075512;28;20023;-71
2022/07/20 05:19:32;;;;;;;6.97;3.35;;;23.40;61.00;;;;;;5081125;28;20115;-71
2022/07/20 05:21:58;;;;;;;13.43;3.75;;;23.50;61.80;;;;;;5081655;28;20569;-72
2022/07/20 05:24:24;;;;;;;7.35;3.50;;;23.50;61.20;;;;;;5068368;28;22354;-71
2022/07/20 05:26:50;;;;;;;7.90;3.38;;;23.50;61.10;;;;;;5083417;28;20016;-71
2022/07/20 05:29:15;;;;;;;4.47;3.60;;;23.60;60.60;;;;;;5058672;28;20029;-71
2022/07/20 05:31:41;;;;;;;6.28;3.45;;;23.60;60.20;;;;;;5066966;28;20024;-71
2022/07/20 05:34:06;;;;;;;6.30;3.55;;;23.80;59.10;;;;;;5068361;28;20020;-73
2022/07/20 05:36:32;;;;;;;7.53;3.55;;;23.80;59.40;;;;;;5067933;28;20440;-72
2022/07/20 05:38:58;;;;;;;8.00;3.40;;;23.90;59.60;;;;;;5048346;28;20079;-72
2022/07/20 05:41:24;;;;;;;8.43;3.80;;;24.00;59.50;;;;;;5059982;28;20028;-72
2022/07/20 05:43:49;;;;;;;7.03;3.38;;;24.10;59.50;;;;;;5065632;28;20633;-72
2022/07/20 05:46:15;;;;;;;7.03;3.75;;;24.20;59.30;;;;;;5060726;28;20027;-72
2022/07/20 05:48:40;;;;;;;7.65;3.40;;;24.20;59.30;;;;;;5046680;28;20029;-72
2022/07/20 05:51:06;;;;;;;9.07;3.67;;;24.30;59.50;;;;;;5054904;28;20017;-72
2022/07/20 05:53:32;;;;;;;5.63;3.70;;;24.40;60.20;;;;;;5053767;28;20602;-72
2022/07/20 05:55:58;;;;;;;9.18;3.65;;;24.50;59.90;;;;;;5050797;28;20055;-72
2022/07/20 05:58:23;;;;;;;9.05;3.72;;;24.50;60.00;;;;;;5048320;28;20032;-73
2022/07/20 06:00:49;;;;;;;9.23;3.75;;;24.50;59.80;;;;;;5045709;28;20029;-72
2022/07/20 06:03:15;;;;;;;6.53;3.60;;;24.40;60.00;;;;;;5065595;28;20040;-72
2022/07/20 06:05:41;;;;;;;11.10;3.70;;;24.30;59.80;;;;;;5049644;28;20052;-73
2022/07/20 06:08:06;;;;;;;5.88;3.40;;;24.30;59.80;;;;;;5054107;28;20017;-73
2022/07/20 06:10:34;;;;;;;5.88;3.53;;;24.30;59.90;;;;;;5047995;28;20021;-72
2022/07/20 06:13:00;;;;;;;9.73;3.90;;;24.30;60.20;;;;;;5050142;28;20029;-72
2022/07/20 06:15:26;;;;;;;5.53;3.60;;;24.30;61.00;;;;;;5052365;28;20036;-73
2022/07/20 06:17:54;;;;;;;7.72;3.35;;;24.20;61.40;;;;;;5054771;28;20408;-73
2022/07/20 06:20:21;;;;;;;8.25;3.40;;;24.20;61.50;;;;;;5045608;28;20033;-74
2022/07/20 06:22:46;;;;;;;5.68;3.60;;;24.10;62.00;;;;;;5059684;28;20029;-73
2022/07/20 06:25:14;;;;;;;4.97;3.50;;;24.00;62.00;;;;;;5052064;28;20025;-73
2022/07/20 06:27:40;;;;;;;8.93;3.60;;;24.10;62.40;;;;;;5063701;28;20093;-72
2022/07/20 06:30:08;;;;;;;5.25;3.53;;;24.20;62.30;;;;;;5057574;28;20020;-73
2022/07/20 06:32:34;;;;;;;7.03;3.30;;;24.20;62.30;;;;;;5055725;28;20043;-73
2022/07/20 06:35:00;;;;;;;6.38;3.42;;;24.30;63.00;;;;;;5059353;28;20327;-73
2022/07/20 06:37:26;;;;;;;5.80;3.55;;;24.40;63.10;;;;;;5056271;28;20107;-73
2022/07/20 06:39:51;;;;;;;5.65;3.20;;;24.40;63.30;;;;;;5058337;28;20024;-73
2022/07/20 06:42:20;;;;;;;7.22;3.35;;;24.50;63.10;;;;;;5055094;28;20032;-73
2022/07/20 06:44:46;;;;;;;4.88;3.50;;;24.70;63.30;;;;;;5055857;28;20033;-72
2022/07/20 06:47:12;;;;;;;6.15;3.70;;;24.90;63.10;;;;;;5056651;28;20025;-72
2022/07/20 06:49:38;;;;;;;4.70;3.75;;;25.10;64.60;;;;;;5051582;28;20570;-72
2022/07/20 06:52:04;;;;;;;6.13;3.45;;;25.40;63.90;;;;;;5054397;28;20029;-72
2022/07/20 06:54:30;;;;;;;6.18;3.33;;;25.70;63.50;;;;;;5062837;28;20409;-72
2022/07/20 06:56:55;;;;;;;13.80;3.83;;;26.10;62.40;;;;;;5055338;28;20606;-72
2022/07/20 06:59:22;;;;;;;10.38;3.80;;;26.40;61.80;;;;;;5048598;28;20082;-72
2022/07/20 07:01:49;;;;;;;9.35;3.22;;;26.60;61.80;;;;;;5050551;28;20021;-72
2022/07/20 07:04:14;;;;;;;9.02;3.50;;;27.00;60.70;;;;;;5056727;28;20024;-72
2022/07/20 07:06:40;;;;;;;5.35;3.33;;;27.40;59.80;;;;;;5051387;28;20032;-72
2022/07/20 07:09:06;;;;;;;11.57;3.67;;;27.70;57.90;;;;;;5049585;28;20164;-72
2022/07/20 07:11:32;;;;;;;7.75;3.25;;;28.20;56.40;;;;;;5056716;28;20033;-73
2022/07/20 07:13:57;;;;;;;5.68;3.28;;;28.70;55.00;;;;;;5056054;28;20151;-73
2022/07/20 07:16:25;;;;;;;22.95;3.53;;;29.20;55.80;;;;;;5067410;28;20028;-73
2022/07/20 07:18:50;;;;;;;14.68;3.47;;;29.40;53.90;;;;;;5046688;28;20476;-73
2022/07/20 07:21:16;;;;;;;14.75;3.90;;;29.60;53.20;;;;;;5063337;28;20068;-73
2022/07/20 07:23:42;;;;;;;6.20;3.30;;;29.90;53.00;;;;;;5051446;28;20056;-73
2022/07/20 07:26:08;;;;;;;6.65;3.33;;;30.10;52.20;;;;;;5058572;28;20100;-73
2022/07/20 07:28:33;;;;;;;5.47;3.10;;;30.50;51.40;;;;;;5066710;28;20060;-73
2022/07/20 07:30:59;;;;;;;10.90;3.60;;;30.70;51.20;;;;;;5046440;28;20163;-72
2022/07/20 07:33:25;;;;;;;8.60;3.30;;;30.90;51.50;;;;;;5048665;28;20086;-74
2022/07/20 07:35:54;;;;;;;14.32;3.63;;;31.00;51.00;;;;;;5048624;28;20041;-74
2022/07/20 07:38:20;;;;;;;11.70;3.08;;;31.20;50.30;;;;;;5051653;28;20522;-73
2022/07/20 07:40:46;;;;;;;5.25;2.88;;;31.30;50.80;;;;;;5067037;28;20032;-73
2022/07/20 07:43:12;;;;;;;6.00;2.90;;;31.40;50.20;;;;;;5053521;28;20033;-75
2022/07/20 07:45:38;;;;;;;6.68;2.60;;;31.70;50.40;;;;;;5048984;28;20466;-74
2022/07/20 07:48:05;;;;;;;8.50;2.85;;;32.00;49.50;;;;;;5050594;28;20396;-74
2022/07/20 07:50:31;;;;;;;7.97;3.15;;;32.30;48.70;;;;;;5051026;28;20044;-76
2022/07/20 07:52:57;;;;;;;7.60;3.05;;;32.50;47.60;;;;;;5044945;28;20398;-75
2022/07/20 07:55:23;;;;;;;6.78;2.90;;;32.60;47.40;;;;;;5047280;28;20040;-75
2022/07/20 07:57:48;;;;;;;4.25;2.92;;;32.80;46.60;;;;;;5052408;28;20086;-74
2022/07/20 08:00:14;;;;;;;4.75;2.80;;;32.90;46.40;;;;;;5056859;28;20028;-74
2022/07/20 08:02:40;;;;;;;6.43;2.60;;;33.10;46.40;;;;;;5053705;28;20323;-74
2022/07/20 08:05:06;;;;;;;4.47;2.42;;;33.30;45.70;;;;;;5048473;28;20241;-73
2022/07/20 08:07:36;;;;;;;5.03;2.90;;;33.40;45.50;;;;;;5052182;28;20076;-74
2022/07/20 08:10:03;;;;;;;5.97;2.60;;;33.50;45.30;;;;;;5052176;28;20082;-76
2022/07/20 08:12:29;;;;;;;4.85;2.80;;;33.70;45.00;;;;;;5066860;28;20062;-74
2022/07/20 08:14:55;;;;;;;7.22;2.70;;;33.80;44.50;;;;;;5052422;28;20060;-75
2022/07/20 08:17:20;;;;;;;6.55;3.13;;;33.90;44.40;;;;;;5052157;28;20033;-74
2022/07/20 08:19:46;;;;;;;4.82;2.78;;;33.90;43.70;;;;;;5050381;28;20562;-74
2022/07/20 08:22:11;;;;;;;5.45;2.83;;;33.70;44.30;;;;;;5060433;28;20236;-75
2022/07/20 08:24:37;;;;;;;4.75;2.83;;;33.80;44.00;;;;;;5054080;28;20077;-76
2022/07/20 08:27:03;;;;;;;3.65;2.80;;;33.90;44.30;;;;;;5051772;28;20028;-74
2022/07/20 08:29:28;;;;;;;7.78;2.95;;;34.00;43.80;;;;;;5083238;28;20026;-74
2022/07/20 08:31:54;;;;;;;2.63;2.40;;;34.10;43.90;;;;;;5059225;28;20108;-73
2022/07/20 08:34:20;;;;;;;6.57;2.50;;;34.20;44.40;;;;;;5053344;28;20297;-74
2022/07/20 08:36:45;;;;;;;9.05;2.55;;;34.30;43.60;;;;;;5052682;28;20443;-76
2022/07/20 08:39:12;;;;;;;4.63;2.30;;;34.40;43.00;;;;;;5045441;28;20544;-74
2022/07/20 08:41:38;;;;;;;7.57;2.60;;;34.40;43.00;;;;;;5048632;28;20029;-74
2022/07/20 08:44:04;;;;;;;7.97;2.60;;;34.50;42.50;;;;;;5043681;28;20102;-74
2022/07/20 08:46:33;;;;;;;8.00;2.72;;;34.50;42.50;;;;;;5046968;28;20485;-74
2022/07/20 08:49:00;;;;;;;8.15;2.80;;;34.50;42.60;;;;;;5051727;28;20094;-74
2022/07/20 08:51:26;;;;;;;6.43;2.33;;;34.60;42.50;;;;;;5052752;28;20037;-76
2022/07/20 08:53:54;;;;;;;7.53;2.70;;;34.70;43.40;;;;;;5049138;28;20089;-74
2022/07/20 08:56:20;;;;;;;9.27;2.50;;;34.80;42.90;;;;;;5050494;28;20140;-75
2022/07/20 08:58:46;;;;;;;7.90;2.70;;;34.70;41.60;;;;;;5048557;28;20147;-75
2022/07/20 09:01:17;;;;;;;8.05;2.60;;;34.80;42.50;;;;;;5055860;28;20025;-74
2022/07/20 09:03:46;;;;;;;5.45;2.40;;;34.90;40.90;;;;;;5046170;28;20108;-75
2022/07/20 09:06:12;;;;;;;21.35;3.28;;;35.00;41.10;;;;;;5046232;28;20024;-74
2022/07/20 09:09:02;;;;;;;9.93;2.58;;;35.10;41.30;;;;;;5049729;28;20392;-74
2022/07/20 09:11:28;;;;;;;7.72;2.30;;;35.20;41.10;;;;;;5050602;28;20503;-74
2022/07/20 09:13:54;;;;;;;6.95;2.33;;;35.30;41.60;;;;;;5054007;28;20036;-74
2022/07/20 09:16:42;;;;;;;6.05;2.50;;;35.30;41.00;;;;;;5046970;28;20253;-75
2022/07/20 09:19:08;;;;;;;5.88;2.33;;;35.40;40.30;;;;;;5061236;28;20230;-74
2022/07/20 09:21:34;;;;;;;9.43;2.40;;;35.40;40.00;;;;;;5052965;28;20033;-73
2022/07/20 09:24:05;;;;;;;9.55;2.22;;;35.30;39.40;;;;;;5052259;28;20035;-74
2022/07/20 09:26:31;;;;;;;6.88;2.30;;;35.30;40.30;;;;;;5051252;28;20025;-74
2022/07/20 09:28:59;;;;;;;4.78;2.28;;;35.40;40.40;;;;;;5041219;28;20036;-75
2022/07/20 09:31:35;;;;;;;6.03;2.50;;;35.40;39.90;;;;;;5042041;28;20017;-74
2022/07/20 09:34:03;;;;;;;3.47;1.88;;;35.50;39.80;;;;;;5044825;28;20036;-75
2022/07/20 09:36:31;;;;;;;6.05;2.13;;;35.60;39.80;;;;;;5063374;28;20075;-75
2022/07/20 09:39:12;;;;;;;5.50;2.10;;;35.70;40.00;;;;;;5059642;28;20588;-75
2022/07/20 09:41:39;;;;;;;4.53;1.80;;;35.80;40.00;;;;;;5046188;28;20702;-75
2022/07/20 09:44:06;;;;;;;4.72;1.90;;;35.90;39.60;;;;;;5055191;28;20035;-74
2022/07/20 09:46:34;;;;;;;3.95;1.80;;;35.90;39.10;;;;;;5065307;28;20055;-74
2022/07/20 09:49:06;;;;;;;6.20;2.20;;;36.00;38.60;;;;;;5044493;28;20025;-74
2022/07/20 09:51:44;;;;;;;4.77;2.07;;;36.00;38.10;;;;;;5063831;28;20036;-74
2022/07/20 09:54:16;;;;;;;5.57;2.10;;;36.00;38.30;;;;;;5052915;28;20432;-74
2022/07/20 09:56:47;;;;;;;5.28;2.00;;;36.00;38.60;;;;;;5049025;28;20037;-74
2022/07/20 09:59:13;;;;;;;5.57;1.80;;;36.10;38.00;;;;;;5059337;28;20468;-74
2022/07/20 10:01:54;;;;;;;9.35;2.03;;;36.10;37.40;;;;;;5062462;28;20040;-74
2022/07/20 10:04:21;;;;;;;7.88;2.05;;;36.20;37.10;;;;;;5055522;28;20029;-73
2022/07/20 10:06:50;;;;;;;3.45;1.80;;;36.30;37.00;;;;;;5050786;28;20029;-74
2022/07/20 10:09:17;;;;;;;4.38;1.60;;;36.40;36.80;;;;;;5045587;28;20389;-74
2022/07/20 10:11:43;;;;;;;7.47;1.80;;;36.40;35.80;;;;;;5049910;28;20029;-73
2022/07/20 10:14:10;;;;;;;4.85;2.20;;;36.40;35.30;;;;;;5060337;28;20342;-74
2022/07/20 10:16:39;;;;;;;5.25;2.10;;;36.40;36.20;;;;;;5064892;28;20442;-73
2022/07/20 10:19:06;;;;;;;3.30;2.13;;;36.30;36.40;;;;;;5049886;28;20090;-74
2022/07/20 10:21:32;;;;;;;4.85;1.88;;;36.30;36.70;;;;;;5046372;28;20029;-74
2022/07/20 10:24:16;;;;;;;4.13;1.95;;;36.30;36.80;;;;;;5063229;28;20024;-71
2022/07/20 10:26:42;;;;;;;5.55;1.70;;;;;;;;;;5053341;28;20499;-73
2022/07/20 10:29:09;;;;;;;8.65;1.90;;;;;;;;;;5059143;28;20025;-73
2022/07/20 10:31:48;;;;;;;4.10;1.88;;;;;;;;;;5064718;28;20074;-73
2022/07/20 10:34:47;;;;;;;6.50;2.00;;;;;;;;;;5056152;28;20110;-72
2022/07/20 10:37:24;;;;;;;4.85;1.80;;;;;;;;;;4672725;28;10000077;-72
2022/07/20 10:40:09;;;;;;;5.75;1.90;;;;;;;;;;5043112;28;20047;-72
2022/07/20 10:42:37;;;;;;;4.57;1.90;;;;;;;;;;5060488;28;20047;-73
2022/07/20 10:45:16;;;;;;;6.40;2.00;;;;;;;;;;5073777;28;20028;-72
2022/07/20 10:47:45;;;;;;;5.95;1.60;;;;;;;;;;5051432;28;20037;-73
2022/07/20 10:50:17;;;;;;;5.68;1.90;;;;;;;;;;5044499;28;20025;-72
2022/07/20 10:52:43;;;;;;;2.78;2.00;;;;;;;;;;5055802;28;20507;-73
2022/07/20 10:55:28;;;;;;;6.68;1.70;;;;;;;;;;5058269;28;20028;-73
2022/07/20 10:57:54;;;;;;;4.72;1.90;;;;;;;;;;5063016;28;20029;-72
2022/07/20 11:00:20;;;;;;;5.85;1.67;;;;;;;;;;5051600;28;20037;-72
2022/07/20 11:02:46;;;;;;;7.05;1.90;;;;;;;;;;5051836;28;20032;-71
2022/07/20 11:05:20;;;;;;;5.60;1.70;;;;;;;;;;5059827;28;20119;-71
2022/07/20 11:07:46;;;;;;;5.75;2.10;;;;;;;;;;4696996;28;10000513;-72
2022/07/20 11:10:22;;;;;;;8.00;1.45;;;;;;;;;;5046941;28;20134;-71
2022/07/20 11:12:59;;;;;;;5.85;1.83;;;;;;;;;;5056500;28;20075;-72
2022/07/20 11:15:42;;;;;;;5.07;1.80;;;;;;;;;;5060921;28;20703;-71
2022/07/20 11:18:09;;;;;;;7.50;1.75;;;;;;;;;;5076435;28;20039;-72
2022/07/20 11:20:35;;;;;;;5.28;1.90;;;;;;;;;;5063925;28;20059;-71
2022/07/20 11:23:01;;;;;;;4.47;2.00;;;;;;;;;;5066844;28;20396;-71
2022/07/20 11:25:43;;;;;;;1.95;1.50;;;;;;;;;;5061515;28;20547;-70
2022/07/20 11:28:11;;;;;;;4.55;1.80;;;;;;;;;;5064677;28;20024;-71
2022/07/20 11:30:38;;;;;;;4.97;1.80;;;;;;;;;;5061355;28;20036;-71
2022/07/20 11:33:04;;;;;;;3.90;1.70;;;;;;;;;;5069813;28;20288;-70
2022/07/20 11:35:30;;;;;;;4.47;2.00;;;;;;;;;;5056043;28;20037;-71
2022/07/20 11:37:56;;;;;;;5.25;1.83;;;;;;;;;;5058876;28;20048;-71
2022/07/20 11:40:22;;;;;;;2.70;1.65;;;;;;;;;;5063257;28;20076;-70
2022/07/20 11:43:08;;;;;;;4.20;1.63;;;;;;;;;;5069960;28;20459;-70
2022/07/20 11:45:34;;;;;;;4.95;1.95;;;;;;;;;;5053862;28;20031;-71
2022/07/20 11:48:03;;;;;;;3.55;1.70;;;;;;;;;;5054159;28;20103;-70
2022/07/20 11:50:32;;;;;;;5.60;1.80;;;;;;;;;;5053147;28;20078;-70
2022/07/20 11:52:59;;;;;;;3.35;1.70;;;;;;;;;;5077019;28;20478;-70
2022/07/20 11:55:35;;;;;;;3.25;1.85;;;;;;;;;;5068028;28;20035;-70
2022/07/20 11:58:02;;;;;;;4.55;1.90;;;;;;;;;;5053143;28;20129;-72
2022/07/20 12:00:28;;;;;;;2.53;1.75;;;;;;;;;;5058950;28;20090;-72
2022/07/20 12:02:54;;;;;;;5.93;1.77;;;;;;;;;;5053808;28;20516;-71
2022/07/20 12:05:20;;;;;;;2.83;1.60;;;;;;;;;;5055389;28;20147;-70
2022/07/20 12:10:33;;;;;;;4.35;1.58;;;;;;;;;;5073420;28;20038;-70
2022/07/20 12:13:03;;;;;;;4.15;1.67;;;;;;;;;;5064985;28;20162;-71
2022/07/20 12:15:29;;;;;;;2.95;1.73;;;;;;;;;;5074421;28;20376;-71
2022/07/20 12:17:55;;;;;;;8.05;1.80;;;;;;;;;;5059842;28;20528;-71
2022/07/20 12:20:22;;;;;;;10.77;2.20;;;;;;;;;;5054858;28;20151;-72
2022/07/20 12:22:53;;;;;;;3.65;1.90;;;38.60;64.40;;;;;;5061120;28;20104;-72
2022/07/20 12:25:20;;;;;;;5.57;1.70;;;38.60;63.40;;;;;;5061694;28;20705;-72
2022/07/20 12:27:46;;;;;;;3.63;2.05;;;;;;;;;;5050232;28;20028;-72
2022/07/20 12:30:27;;;;;;;3.70;1.92;;;;;;;;;;5059708;28;20027;-72
2022/07/20 12:33:13;;;;;;;3.67;1.88;;;;;;;;;;5072123;28;20032;-71
2022/07/20 12:35:40;;;;;;;4.88;1.80;;;;;;;;;;5046354;28;20102;-71
2022/07/20 12:38:07;;;;;;;6.07;1.90;;;;;;;;;;5065257;28;20054;-71
2022/07/20 12:40:53;;;;;;;5.47;1.70;;;;;;;;;;5069226;28;20024;-71
2022/07/20 12:43:35;;;;;;;5.93;1.77;;;;;;;;;;5066849;28;20037;-71
2022/07/20 12:46:07;;;;;;;4.05;1.73;;;;;;;;;;5058617;28;20024;-71
2022/07/20 12:48:34;;;;;;;5.75;1.63;;;;;;;;;;5051246;28;20025;-74
2022/07/20 12:51:00;;;;;;;5.07;1.77;;;;;;;;;;5067794;28;20016;-72
2022/07/20 12:53:28;;;;;;;4.10;1.58;;;;;;;;;;5063872;28;20031;-72
2022/07/20 12:55:54;;;;;;;8.30;1.90;;;;;;;;;;5054313;28;20367;-72
2022/07/20 12:58:20;;;;;;;6.85;1.67;;;;;;;;;;5058948;28;20382;-72
2022/07/20 13:00:46;;;;;;;6.65;1.85;;;;;;;;;;5059762;28;20033;-73
2022/07/20 13:03:12;;;;;;;5.45;1.80;;;;;;;;;;5064629;28;20024;-72
2022/07/20 13:05:40;;;;;;;3.00;1.90;;;;;;;;;;5055234;28;20495;-72
2022/07/20 13:08:06;;;;;;;3.45;1.70;;;;;;;;;;5042552;28;20021;-72
2022/07/20 13:10:32;;;;;;;4.15;1.50;;;;;;;;;;5045647;28;20029;-72
2022/07/20 13:12:58;;;;;;;5.07;1.85;;;;;;;;;;5051972;28;20020;-72